sensor_id;sensor_type;location;lat;lon;timestamp;P1;durP1;ratioP1;P2;durP2;ratioP2
29302;SDS011;60019;45.556;12.004;2023-12-22T00:00:49;46.53;;;29.92;;
29302;SDS011;60019;45.556;12.004;2023-12-22T00:06:51;37.42;;;27.05;;
29302;SDS011;60019;45.556;12.004;2023-12-22T00:12:53;40.55;;;27.92;;
29302;SDS011;60019;45.556;12.004;2023-12-22T00:18:55;36.97;;;27.02;;
29302;SDS011;60019;45.556;12.004;2023-12-22T00:24:58;42.28;;;28.10;;
29302;SDS011;60019;45.556;12.004;2023-12-22T00:31:00;40.83;;;28.00;;
29302;SDS011;60019;45.556;12.004;2023-12-22T00:37:02;41.28;;;28.13;;
29302;SDS011;60019;45.556;12.004;2023-12-22T00:43:05;40.50;;;26.48;;
29302;SDS011;60019;45.556;12.004;2023-12-22T00:49:07;38.72;;;28.08;;
29302;SDS011;60019;45.556;12.004;2023-12-22T00:55:08;37.85;;;26.10;;
29302;SDS011;60019;45.556;12.004;2023-12-22T01:01:10;40.60;;;27.00;;
29302;SDS011;60019;45.556;12.004;2023-12-22T01:07:12;35.10;;;26.33;;
29302;SDS011;60019;45.556;12.004;2023-12-22T01:13:14;34.50;;;25.30;;
29302;SDS011;60019;45.556;12.004;2023-12-22T01:19:16;38.50;;;27.10;;
29302;SDS011;60019;45.556;12.004;2023-12-22T01:25:18;36.35;;;25.00;;
29302;SDS011;60019;45.556;12.004;2023-12-22T01:31:20;37.42;;;24.88;;
29302;SDS011;60019;45.556;12.004;2023-12-22T01:37:22;36.13;;;24.33;;
29302;SDS011;60019;45.556;12.004;2023-12-22T01:43:25;36.22;;;23.83;;
29302;SDS011;60019;45.556;12.004;2023-12-22T01:49:27;33.72;;;21.98;;
29302;SDS011;60019;45.556;12.004;2023-12-22T01:55:30;32.58;;;22.00;;
29302;SDS011;60019;45.556;12.004;2023-12-22T02:01:32;32.75;;;20.98;;
29302;SDS011;60019;45.556;12.004;2023-12-22T02:07:34;30.15;;;21.65;;
29302;SDS011;60019;45.556;12.004;2023-12-22T02:13:36;31.13;;;20.67;;
29302;SDS011;60019;45.556;12.004;2023-12-22T02:25:40;28.08;;;20.65;;
29302;SDS011;60019;45.556;12.004;2023-12-22T02:31:42;28.48;;;19.30;;
29302;SDS011;60019;45.556;12.004;2023-12-22T02:37:48;25.50;;;18.70;;
29302;SDS011;60019;45.556;12.004;2023-12-22T02:43:51;24.85;;;18.88;;
29302;SDS011;60019;45.556;12.004;2023-12-22T02:49:53;25.33;;;18.50;;
29302;SDS011;60019;45.556;12.004;2023-12-22T02:55:55;26.45;;;18.63;;
29302;SDS011;60019;45.556;12.004;2023-12-22T03:01:56;26.15;;;18.80;;
29302;SDS011;60019;45.556;12.004;2023-12-22T03:07:58;27.80;;;18.77;;
29302;SDS011;60019;45.556;12.004;2023-12-22T03:14:00;25.13;;;17.02;;
29302;SDS011;60019;45.556;12.004;2023-12-22T03:20:02;26.48;;;17.45;;
29302;SDS011;60019;45.556;12.004;2023-12-22T03:26:04;24.95;;;17.25;;
29302;SDS011;60019;45.556;12.004;2023-12-22T03:32:05;23.75;;;16.50;;
29302;SDS011;60019;45.556;12.004;2023-12-22T03:38:07;25.20;;;16.85;;
29302;SDS011;60019;45.556;12.004;2023-12-22T03:44:09;22.83;;;16.60;;
29302;SDS011;60019;45.556;12.004;2023-12-22T03:50:11;23.23;;;16.50;;
29302;SDS011;60019;45.556;12.004;2023-12-22T03:56:12;20.52;;;16.13;;
29302;SDS011;60019;45.556;12.004;2023-12-22T04:02:14;24.52;;;16.55;;
29302;SDS011;60019;45.556;12.004;2023-12-22T04:08:16;24.02;;;15.80;;
29302;SDS011;60019;45.556;12.004;2023-12-22T04:14:18;20.00;;;14.63;;
29302;SDS011;60019;45.556;12.004;2023-12-22T04:20:20;22.65;;;17.83;;
29302;SDS011;60019;45.556;12.004;2023-12-22T04:26:21;22.27;;;16.38;;
29302;SDS011;60019;45.556;12.004;2023-12-22T04:32:23;22.20;;;15.63;;
29302;SDS011;60019;45.556;12.004;2023-12-22T04:38:25;24.17;;;16.58;;
29302;SDS011;60019;45.556;12.004;2023-12-22T04:44:27;23.45;;;16.50;;
29302;SDS011;60019;45.556;12.004;2023-12-22T04:50:28;23.25;;;15.95;;
29302;SDS011;60019;45.556;12.004;2023-12-22T04:56:30;25.63;;;16.45;;
29302;SDS011;60019;45.556;12.004;2023-12-22T05:02:33;26.88;;;17.23;;
29302;SDS011;60019;45.556;12.004;2023-12-22T05:08:34;23.10;;;16.75;;
29302;SDS011;60019;45.556;12.004;2023-12-22T05:14:36;24.40;;;15.77;;
29302;SDS011;60019;45.556;12.004;2023-12-22T05:20:38;23.88;;;15.50;;
29302;SDS011;60019;45.556;12.004;2023-12-22T05:26:40;24.88;;;16.13;;
29302;SDS011;60019;45.556;12.004;2023-12-22T05:32:42;19.30;;;14.40;;
29302;SDS011;60019;45.556;12.004;2023-12-22T05:38:45;23.30;;;14.88;;
29302;SDS011;60019;45.556;12.004;2023-12-22T05:44:48;22.30;;;14.80;;
29302;SDS011;60019;45.556;12.004;2023-12-22T05:50:50;24.40;;;16.88;;
29302;SDS011;60019;45.556;12.004;2023-12-22T05:56:52;26.83;;;16.98;;
29302;SDS011;60019;45.556;12.004;2023-12-22T06:02:54;25.90;;;17.67;;
29302;SDS011;60019;45.556;12.004;2023-12-22T06:08:56;28.00;;;16.77;;
29302;SDS011;60019;45.556;12.004;2023-12-22T06:14:58;27.73;;;17.13;;
29302;SDS011;60019;45.556;12.004;2023-12-22T06:21:00;32.22;;;19.17;;
29302;SDS011;60019;45.556;12.004;2023-12-22T06:27:01;33.70;;;20.50;;
29302;SDS011;60019;45.556;12.004;2023-12-22T06:33:03;45.53;;;23.48;;
29302;SDS011;60019;45.556;12.004;2023-12-22T06:39:05;52.15;;;23.75;;
29302;SDS011;60019;45.556;12.004;2023-12-22T06:45:07;45.90;;;23.35;;
29302;SDS011;60019;45.556;12.004;2023-12-22T06:51:18;47.35;;;25.23;;
29302;SDS011;60019;45.556;12.004;2023-12-22T06:57:20;49.30;;;25.20;;
29302;SDS011;60019;45.556;12.004;2023-12-22T07:03:21;58.33;;;29.83;;
29302;SDS011;60019;45.556;12.004;2023-12-22T07:15:25;62.78;;;29.42;;
29302;SDS011;60019;45.556;12.004;2023-12-22T07:21:27;54.95;;;27.65;;
29302;SDS011;60019;45.556;12.004;2023-12-22T07:27:28;51.22;;;25.90;;
29302;SDS011;60019;45.556;12.004;2023-12-22T07:33:30;52.85;;;27.00;;
29302;SDS011;60019;45.556;12.004;2023-12-22T07:39:32;48.65;;;24.67;;
29302;SDS011;60019;45.556;12.004;2023-12-22T07:45:34;44.95;;;24.67;;
29302;SDS011;60019;45.556;12.004;2023-12-22T07:51:36;52.30;;;25.13;;
29302;SDS011;60019;45.556;12.004;2023-12-22T07:57:38;38.38;;;23.50;;
29302;SDS011;60019;45.556;12.004;2023-12-22T08:03:40;42.58;;;22.52;;
29302;SDS011;60019;45.556;12.004;2023-12-22T08:09:42;40.92;;;23.15;;
29302;SDS011;60019;45.556;12.004;2023-12-22T08:15:44;44.10;;;24.55;;
29302;SDS011;60019;45.556;12.004;2023-12-22T08:21:46;35.35;;;21.88;;
29302;SDS011;60019;45.556;12.004;2023-12-22T08:27:47;41.97;;;22.98;;
29302;SDS011;60019;45.556;12.004;2023-12-22T08:33:49;40.03;;;23.25;;
29302;SDS011;60019;45.556;12.004;2023-12-22T08:39:51;35.28;;;21.50;;
29302;SDS011;60019;45.556;12.004;2023-12-22T08:45:53;35.97;;;23.73;;
29302;SDS011;60019;45.556;12.004;2023-12-22T08:51:55;37.70;;;21.95;;
29302;SDS011;60019;45.556;12.004;2023-12-22T08:57:57;37.55;;;23.13;;
29302;SDS011;60019;45.556;12.004;2023-12-22T09:03:59;34.75;;;22.42;;
29302;SDS011;60019;45.556;12.004;2023-12-22T09:10:00;35.75;;;23.05;;
29302;SDS011;60019;45.556;12.004;2023-12-22T09:16:04;39.58;;;22.30;;
29302;SDS011;60019;45.556;12.004;2023-12-22T09:22:06;34.85;;;22.35;;
29302;SDS011;60019;45.556;12.004;2023-12-22T09:28:08;34.80;;;21.83;;
29302;SDS011;60019;45.556;12.004;2023-12-22T09:34:10;36.60;;;21.90;;
29302;SDS011;60019;45.556;12.004;2023-12-22T09:40:12;31.67;;;20.25;;
29302;SDS011;60019;45.556;12.004;2023-12-22T09:46:13;30.15;;;19.95;;
29302;SDS011;60019;45.556;12.004;2023-12-22T09:52:16;33.45;;;20.73;;
29302;SDS011;60019;45.556;12.004;2023-12-22T09:58:18;35.03;;;21.88;;
29302;SDS011;60019;45.556;12.004;2023-12-22T10:04:20;29.25;;;19.35;;
29302;SDS011;60019;45.556;12.004;2023-12-22T10:10:22;31.42;;;19.60;;
29302;SDS011;60019;45.556;12.004;2023-12-22T10:16:24;30.33;;;19.73;;
29302;SDS011;60019;45.556;12.004;2023-12-22T10:22:27;25.88;;;18.67;;
29302;SDS011;60019;45.556;12.004;2023-12-22T10:28:28;28.35;;;19.63;;
29302;SDS011;60019;45.556;12.004;2023-12-22T10:34:30;23.60;;;17.23;;
29302;SDS011;60019;45.556;12.004;2023-12-22T10:40:32;23.33;;;16.75;;
29302;SDS011;60019;45.556;12.004;2023-12-22T10:46:34;25.48;;;17.40;;
29302;SDS011;60019;45.556;12.004;2023-12-22T10:52:36;22.73;;;16.60;;
29302;SDS011;60019;45.556;12.004;2023-12-22T10:58:38;25.80;;;15.68;;
29302;SDS011;60019;45.556;12.004;2023-12-22T11:04:40;23.00;;;15.88;;
29302;SDS011;60019;45.556;12.004;2023-12-22T11:10:42;23.20;;;15.63;;
29302;SDS011;60019;45.556;12.004;2023-12-22T11:16:45;22.25;;;14.45;;
29302;SDS011;60019;45.556;12.004;2023-12-22T11:22:49;17.95;;;13.57;;
29302;SDS011;60019;45.556;12.004;2023-12-22T11:28:52;19.67;;;13.68;;
29302;SDS011;60019;45.556;12.004;2023-12-22T11:34:54;19.17;;;13.98;;
29302;SDS011;60019;45.556;12.004;2023-12-22T11:40:56;20.10;;;13.20;;
29302;SDS011;60019;45.556;12.004;2023-12-22T11:47:05;19.33;;;12.70;;
29302;SDS011;60019;45.556;12.004;2023-12-22T11:53:25;19.80;;;12.57;;
29302;SDS011;60019;45.556;12.004;2023-12-22T11:59:27;16.92;;;11.38;;
29302;SDS011;60019;45.556;12.004;2023-12-22T12:05:29;16.10;;;10.98;;
29302;SDS011;60019;45.556;12.004;2023-12-22T12:17:51;16.92;;;11.60;;
29302;SDS011;60019;45.556;12.004;2023-12-22T12:23:53;14.07;;;10.65;;
29302;SDS011;60019;45.556;12.004;2023-12-22T12:29:55;24.35;;;17.23;;
29302;SDS011;60019;45.556;12.004;2023-12-22T12:35:59;126.43;;;56.70;;
29302;SDS011;60019;45.556;12.004;2023-12-22T12:42:01;84.93;;;43.15;;
29302;SDS011;60019;45.556;12.004;2023-12-22T12:48:03;46.03;;;28.48;;
29302;SDS011;60019;45.556;12.004;2023-12-22T12:54:08;40.88;;;25.88;;
29302;SDS011;60019;45.556;12.004;2023-12-22T13:00:11;34.58;;;22.83;;
29302;SDS011;60019;45.556;12.004;2023-12-22T13:06:13;35.67;;;22.38;;
29302;SDS011;60019;45.556;12.004;2023-12-22T13:12:15;29.70;;;19.17;;
29302;SDS011;60019;45.556;12.004;2023-12-22T13:18:17;32.75;;;21.08;;
29302;SDS011;60019;45.556;12.004;2023-12-22T13:24:19;27.25;;;17.20;;
29302;SDS011;60019;45.556;12.004;2023-12-22T13:30:31;56.15;;;29.73;;
29302;SDS011;60019;45.556;12.004;2023-12-22T13:36:34;36.33;;;22.23;;
29302;SDS011;60019;45.556;12.004;2023-12-22T13:42:38;35.15;;;20.98;;
29302;SDS011;60019;45.556;12.004;2023-12-22T13:48:41;31.52;;;20.48;;
29302;SDS011;60019;45.556;12.004;2023-12-22T13:54:43;32.95;;;19.65;;
29302;SDS011;60019;45.556;12.004;2023-12-22T14:00:45;29.98;;;18.90;;
29302;SDS011;60019;45.556;12.004;2023-12-22T14:06:47;24.20;;;17.30;;
29302;SDS011;60019;45.556;12.004;2023-12-22T14:12:49;33.38;;;18.20;;
29302;SDS011;60019;45.556;12.004;2023-12-22T14:18:51;28.40;;;18.23;;
29302;SDS011;60019;45.556;12.004;2023-12-22T14:24:53;23.83;;;16.42;;
29302;SDS011;60019;45.556;12.004;2023-12-22T14:30:55;40.92;;;24.10;;
29302;SDS011;60019;45.556;12.004;2023-12-22T14:36:57;40.88;;;24.35;;
29302;SDS011;60019;45.556;12.004;2023-12-22T14:43:00;30.58;;;20.17;;
29302;SDS011;60019;45.556;12.004;2023-12-22T14:49:02;30.17;;;19.25;;
29302;SDS011;60019;45.556;12.004;2023-12-22T14:55:04;28.27;;;18.73;;
29302;SDS011;60019;45.556;12.004;2023-12-22T15:01:11;28.25;;;17.95;;
29302;SDS011;60019;45.556;12.004;2023-12-22T15:07:16;30.80;;;18.80;;
29302;SDS011;60019;45.556;12.004;2023-12-22T15:13:18;28.92;;;18.98;;
29302;SDS011;60019;45.556;12.004;2023-12-22T15:19:20;25.80;;;18.20;;
29302;SDS011;60019;45.556;12.004;2023-12-22T15:25:22;29.70;;;20.25;;
29302;SDS011;60019;45.556;12.004;2023-12-22T15:31:23;41.47;;;25.27;;
29302;SDS011;60019;45.556;12.004;2023-12-22T15:37:25;42.92;;;24.80;;
29302;SDS011;60019;45.556;12.004;2023-12-22T15:43:27;35.92;;;22.48;;
29302;SDS011;60019;45.556;12.004;2023-12-22T15:49:29;44.35;;;24.73;;
29302;SDS011;60019;45.556;12.004;2023-12-22T15:55:31;48.17;;;28.25;;
29302;SDS011;60019;45.556;12.004;2023-12-22T16:01:33;61.35;;;32.47;;
29302;SDS011;60019;45.556;12.004;2023-12-22T16:07:35;61.63;;;31.90;;
29302;SDS011;60019;45.556;12.004;2023-12-22T16:13:36;71.70;;;36.20;;
29302;SDS011;60019;45.556;12.004;2023-12-22T16:19:38;68.32;;;36.30;;
29302;SDS011;60019;45.556;12.004;2023-12-22T16:25:41;65.32;;;35.67;;
29302;SDS011;60019;45.556;12.004;2023-12-22T16:31:43;63.70;;;34.60;;
29302;SDS011;60019;45.556;12.004;2023-12-22T16:37:44;55.15;;;32.40;;
29302;SDS011;60019;45.556;12.004;2023-12-22T16:43:47;57.35;;;32.20;;
29302;SDS011;60019;45.556;12.004;2023-12-22T16:49:53;52.22;;;31.40;;
29302;SDS011;60019;45.556;12.004;2023-12-22T16:55:54;46.40;;;29.38;;
29302;SDS011;60019;45.556;12.004;2023-12-22T17:01:56;46.22;;;30.60;;
29302;SDS011;60019;45.556;12.004;2023-12-22T17:07:58;46.65;;;28.73;;
29302;SDS011;60019;45.556;12.004;2023-12-22T17:14:00;42.95;;;29.05;;
29302;SDS011;60019;45.556;12.004;2023-12-22T17:20:02;43.60;;;28.23;;
29302;SDS011;60019;45.556;12.004;2023-12-22T17:26:04;41.35;;;26.65;;
29302;SDS011;60019;45.556;12.004;2023-12-22T17:32:06;42.63;;;27.48;;
29302;SDS011;60019;45.556;12.004;2023-12-22T17:38:08;40.88;;;27.65;;
29302;SDS011;60019;45.556;12.004;2023-12-22T17:44:10;43.42;;;27.50;;
29302;SDS011;60019;45.556;12.004;2023-12-22T17:50:12;41.10;;;27.10;;
29302;SDS011;60019;45.556;12.004;2023-12-22T17:56:14;44.92;;;27.70;;
29302;SDS011;60019;45.556;12.004;2023-12-22T18:02:15;43.88;;;28.95;;
29302;SDS011;60019;45.556;12.004;2023-12-22T18:08:18;43.25;;;29.33;;
29302;SDS011;60019;45.556;12.004;2023-12-22T18:14:20;48.05;;;28.02;;
29302;SDS011;60019;45.556;12.004;2023-12-22T18:20:22;41.53;;;27.42;;
29302;SDS011;60019;45.556;12.004;2023-12-22T18:26:24;42.13;;;27.95;;
29302;SDS011;60019;45.556;12.004;2023-12-22T18:32:26;38.00;;;25.55;;
29302;SDS011;60019;45.556;12.004;2023-12-22T18:38:28;39.35;;;26.05;;
29302;SDS011;60019;45.556;12.004;2023-12-22T18:44:29;38.38;;;26.80;;
29302;SDS011;60019;45.556;12.004;2023-12-22T18:50:31;50.38;;;33.83;;
29302;SDS011;60019;45.556;12.004;2023-12-22T18:56:33;51.80;;;30.38;;
29302;SDS011;60019;45.556;12.004;2023-12-22T19:02:35;45.30;;;28.58;;
29302;SDS011;60019;45.556;12.004;2023-12-22T19:08:37;47.17;;;31.05;;
29302;SDS011;60019;45.556;12.004;2023-12-22T19:14:39;44.13;;;28.52;;
29302;SDS011;60019;45.556;12.004;2023-12-22T19:20:41;50.78;;;32.33;;
29302;SDS011;60019;45.556;12.004;2023-12-22T19:26:44;46.17;;;30.73;;
29302;SDS011;60019;45.556;12.004;2023-12-22T19:32:47;45.92;;;31.33;;
29302;SDS011;60019;45.556;12.004;2023-12-22T19:38:51;49.08;;;32.08;;
29302;SDS011;60019;45.556;12.004;2023-12-22T19:44:53;71.05;;;41.38;;
29302;SDS011;60019;45.556;12.004;2023-12-22T19:50:55;71.28;;;45.35;;
29302;SDS011;60019;45.556;12.004;2023-12-22T19:56:57;58.65;;;37.72;;
29302;SDS011;60019;45.556;12.004;2023-12-22T20:02:59;52.25;;;34.03;;
29302;SDS011;60019;45.556;12.004;2023-12-22T20:09:01;48.00;;;32.72;;
29302;SDS011;60019;45.556;12.004;2023-12-22T20:15:08;45.50;;;31.73;;
29302;SDS011;60019;45.556;12.004;2023-12-22T20:21:12;52.08;;;33.88;;
29302;SDS011;60019;45.556;12.004;2023-12-22T20:27:14;43.70;;;30.85;;
29302;SDS011;60019;45.556;12.004;2023-12-22T20:33:17;44.22;;;32.78;;
29302;SDS011;60019;45.556;12.004;2023-12-22T20:39:19;43.88;;;32.35;;
29302;SDS011;60019;45.556;12.004;2023-12-22T20:45:20;41.47;;;32.28;;
29302;SDS011;60019;45.556;12.004;2023-12-22T20:51:22;39.85;;;29.63;;
29302;SDS011;60019;45.556;12.004;2023-12-22T20:57:24;39.72;;;29.63;;
29302;SDS011;60019;45.556;12.004;2023-12-22T21:03:26;45.85;;;31.05;;
29302;SDS011;60019;45.556;12.004;2023-12-22T21:09:28;45.13;;;32.63;;
29302;SDS011;60019;45.556;12.004;2023-12-22T21:15:30;52.13;;;33.47;;
29302;SDS011;60019;45.556;12.004;2023-12-22T21:21:32;47.78;;;31.52;;
29302;SDS011;60019;45.556;12.004;2023-12-22T21:27:34;46.70;;;30.75;;
29302;SDS011;60019;45.556;12.004;2023-12-22T21:33:36;46.55;;;29.77;;
29302;SDS011;60019;45.556;12.004;2023-12-22T21:39:39;45.88;;;30.48;;
29302;SDS011;60019;45.556;12.004;2023-12-22T21:45:41;50.17;;;31.23;;
29302;SDS011;60019;45.556;12.004;2023-12-22T21:51:42;65.20;;;36.42;;
29302;SDS011;60019;45.556;12.004;2023-12-22T21:57:44;77.63;;;39.47;;
29302;SDS011;60019;45.556;12.004;2023-12-22T22:03:46;66.28;;;37.92;;
29302;SDS011;60019;45.556;12.004;2023-12-22T22:09:51;66.38;;;36.03;;
29302;SDS011;60019;45.556;12.004;2023-12-22T22:15:52;69.25;;;37.67;;
29302;SDS011;60019;45.556;12.004;2023-12-22T22:21:54;64.30;;;35.33;;
29302;SDS011;60019;45.556;12.004;2023-12-22T22:27:56;69.25;;;36.97;;
29302;SDS011;60019;45.556;12.004;2023-12-22T22:33:58;56.00;;;34.28;;
29302;SDS011;60019;45.556;12.004;2023-12-22T22:39:59;58.38;;;34.40;;
29302;SDS011;60019;45.556;12.004;2023-12-22T22:46:01;53.10;;;32.25;;
29302;SDS011;60019;45.556;12.004;2023-12-22T22:52:04;59.28;;;33.65;;
29302;SDS011;60019;45.556;12.004;2023-12-22T22:58:06;51.95;;;31.75;;
29302;SDS011;60019;45.556;12.004;2023-12-22T23:04:08;49.15;;;30.58;;
29302;SDS011;60019;45.556;12.004;2023-12-22T23:10:10;50.92;;;33.58;;
29302;SDS011;60019;45.556;12.004;2023-12-22T23:16:12;87.25;;;47.03;;
29302;SDS011;60019;45.556;12.004;2023-12-22T23:22:13;66.20;;;38.80;;
29302;SDS011;60019;45.556;12.004;2023-12-22T23:28:15;62.97;;;37.42;;
29302;SDS011;60019;45.556;12.004;2023-12-22T23:34:17;61.60;;;35.72;;
29302;SDS011;60019;45.556;12.004;2023-12-22T23:40:19;51.88;;;33.35;;
29302;SDS011;60019;45.556;12.004;2023-12-22T23:46:20;50.15;;;31.88;;
29302;SDS011;60019;45.556;12.004;2023-12-22T23:52:22;46.63;;;31.63;;
29302;SDS011;60019;45.556;12.004;2023-12-22T23:58:24;45.70;;;29.95;;
